Harrisburg, Oregon
Current Conditions -  °F | °C
As of 3:54 PM on Saturday 22 Nov 2014 (Local Time) from KEUG Reporting Station
Light Rain Light Rain  
Wind Chill: 52°   Ceiling: 4100
Heat Index: 52°   Visibility: 10mi
Dew Point: 44°   Wind: 5mph
Humidity: 74%   Direction: 210°SSW
Pressure: 30.12"   Gusts: NA
Location:  44.27°N, 123.17°W
Report Text: KEUG 222354Z 21004KT 10SM -RA SCT032 BKN041 11/07 A3012 RMK AO2 RAB54 SLP201 VCSH P0000 60002 T01110067 10133 20094 51035
Loading
Personal Weather Stations






























Interactive Weather Map New forecast layout! Learn more

10-Day Weather Forecast

Advertisements
Track Severe Weather on mobile